sensor_id;sensor_type;location;lat;lon;timestamp;temperature;humidity
74488;DHT22;63019;51.080;13.642;2023-02-04T00:00:39;4.20;99.90
74488;DHT22;63019;51.080;13.642;2023-02-04T00:01:41;4.10;99.90
74488;DHT22;63019;51.080;13.642;2023-02-04T00:02:43;4.10;99.90
74488;DHT22;63019;51.080;13.642;2023-02-04T00:03:45;4.10;99.90
74488;DHT22;63019;51.080;13.642;2023-02-04T00:04:47;4.00;99.90
74488;DHT22;63019;51.080;13.642;2023-02-04T00:05:49;4.00;99.90
74488;DHT22;63019;51.080;13.642;2023-02-04T00:06:50;4.00;99.90
74488;DHT22;63019;51.080;13.642;2023-02-04T00:07:52;3.90;99.90
74488;DHT22;63019;51.080;13.642;2023-02-04T00:08:54;3.90;99.90
74488;DHT22;63019;51.080;13.642;2023-02-04T00:09:56;3.90;99.90
74488;DHT22;63019;51.080;13.642;2023-02-04T00:10:57;3.80;99.90
74488;DHT22;63019;51.080;13.642;2023-02-04T00:11:59;3.80;99.90
74488;DHT22;63019;51.080;13.642;2023-02-04T00:13:02;3.80;99.90
74488;DHT22;63019;51.080;13.642;2023-02-04T00:14:04;3.80;99.90
74488;DHT22;63019;51.080;13.642;2023-02-04T00:15:06;3.80;99.90
74488;DHT22;63019;51.080;13.642;2023-02-04T00:16:08;3.80;99.90
74488;DHT22;63019;51.080;13.642;2023-02-04T00:17:10;3.80;99.90
74488;DHT22;63019;51.080;13.642;2023-02-04T00:18:13;3.80;99.90
74488;DHT22;63019;51.080;13.642;2023-02-04T00:19:15;3.70;99.90
74488;DHT22;63019;51.080;13.642;2023-02-04T00:20:17;3.70;99.90
74488;DHT22;63019;51.080;13.642;2023-02-04T00:21:20;3.70;99.90
74488;DHT22;63019;51.080;13.642;2023-02-04T00:22:22;3.70;99.90
74488;DHT22;63019;51.080;13.642;2023-02-04T00:23:23;3.70;99.90
74488;DHT22;63019;51.080;13.642;2023-02-04T00:24:25;3.70;99.90
74488;DHT22;63019;51.080;13.642;2023-02-04T00:25:27;3.70;99.90
74488;DHT22;63019;51.080;13.642;2023-02-04T00:26:29;3.70;99.90
74488;DHT22;63019;51.080;13.642;2023-02-04T00:27:31;3.70;99.90
74488;DHT22;63019;51.080;13.642;2023-02-04T00:28:32;3.70;99.90
74488;DHT22;63019;51.080;13.642;2023-02-04T00:29:34;3.60;99.90
74488;DHT22;63019;51.080;13.642;2023-02-04T00:30:36;3.60;99.90
74488;DHT22;63019;51.080;13.642;2023-02-04T00:31:38;3.60;99.90
74488;DHT22;63019;51.080;13.642;2023-02-04T00:32:40;3.60;99.90
74488;DHT22;63019;51.080;13.642;2023-02-04T00:33:41;3.60;99.90
74488;DHT22;63019;51.080;13.642;2023-02-04T00:34:44;3.60;99.90
74488;DHT22;63019;51.080;13.642;2023-02-04T00:35:46;3.60;99.90
74488;DHT22;63019;51.080;13.642;2023-02-04T00:36:47;3.50;99.90
74488;DHT22;63019;51.080;13.642;2023-02-04T00:37:50;3.50;99.90
74488;DHT22;63019;51.080;13.642;2023-02-04T00:38:52;3.50;99.90
74488;DHT22;63019;51.080;13.642;2023-02-04T00:39:54;3.50;99.90
74488;DHT22;63019;51.080;13.642;2023-02-04T00:40:56;3.40;99.90
74488;DHT22;63019;51.080;13.642;2023-02-04T00:41:57;3.40;99.90
74488;DHT22;63019;51.080;13.642;2023-02-04T00:42:59;3.40;99.90
74488;DHT22;63019;51.080;13.642;2023-02-04T00:44:01;3.30;99.90
74488;DHT22;63019;51.080;13.642;2023-02-04T00:45:03;3.30;99.90
74488;DHT22;63019;51.080;13.642;2023-02-04T00:46:05;3.30;99.90
74488;DHT22;63019;51.080;13.642;2023-02-04T00:47:07;3.20;99.90
74488;DHT22;63019;51.080;13.642;2023-02-04T00:48:09;3.20;99.90
74488;DHT22;63019;51.080;13.642;2023-02-04T00:49:10;3.20;99.90
74488;DHT22;63019;51.080;13.642;2023-02-04T00:50:12;3.20;99.90
74488;DHT22;63019;51.080;13.642;2023-02-04T00:51:14;3.20;99.90
74488;DHT22;63019;51.080;13.642;2023-02-04T00:52:16;3.20;99.90
74488;DHT22;63019;51.080;13.642;2023-02-04T00:53:17;3.10;99.90
74488;DHT22;63019;51.080;13.642;2023-02-04T00:54:19;3.10;99.90
74488;DHT22;63019;51.080;13.642;2023-02-04T00:55:21;3.10;99.90
74488;DHT22;63019;51.080;13.642;2023-02-04T00:56:23;3.10;99.90
74488;DHT22;63019;51.080;13.642;2023-02-04T00:57:25;3.10;99.90
74488;DHT22;63019;51.080;13.642;2023-02-04T00:58:26;3.10;99.90
74488;DHT22;63019;51.080;13.642;2023-02-04T00:59:28;3.10;99.90
74488;DHT22;63019;51.080;13.642;2023-02-04T01:00:30;3.10;99.90
74488;DHT22;63019;51.080;13.642;2023-02-04T01:01:33;3.10;99.90
74488;DHT22;63019;51.080;13.642;2023-02-04T01:02:34;3.10;99.90
74488;DHT22;63019;51.080;13.642;2023-02-04T01:03:36;3.10;99.90
74488;DHT22;63019;51.080;13.642;2023-02-04T01:04:38;3.10;99.90
74488;DHT22;63019;51.080;13.642;2023-02-04T01:05:40;3.10;99.90
74488;DHT22;63019;51.080;13.642;2023-02-04T01:06:42;3.10;99.90
74488;DHT22;63019;51.080;13.642;2023-02-04T01:07:43;3.10;99.90
74488;DHT22;63019;51.080;13.642;2023-02-04T01:08:45;3.10;99.90
74488;DHT22;63019;51.080;13.642;2023-02-04T01:09:47;3.10;99.90
74488;DHT22;63019;51.080;13.642;2023-02-04T01:10:49;3.10;99.90
74488;DHT22;63019;51.080;13.642;2023-02-04T01:11:51;3.10;99.90
74488;DHT22;63019;51.080;13.642;2023-02-04T01:12:53;3.10;99.90
74488;DHT22;63019;51.080;13.642;2023-02-04T01:13:55;3.10;99.90
74488;DHT22;63019;51.080;13.642;2023-02-04T01:14:56;3.10;99.90
74488;DHT22;63019;51.080;13.642;2023-02-04T01:15:58;3.10;99.90
74488;DHT22;63019;51.080;13.642;2023-02-04T01:17:00;3.10;99.90
74488;DHT22;63019;51.080;13.642;2023-02-04T01:18:02;3.10;99.90
74488;DHT22;63019;51.080;13.642;2023-02-04T01:19:04;3.10;99.90
74488;DHT22;63019;51.080;13.642;2023-02-04T01:20:06;3.10;99.90
74488;DHT22;63019;51.080;13.642;2023-02-04T01:21:08;3.10;99.90
74488;DHT22;63019;51.080;13.642;2023-02-04T01:22:10;3.10;99.90
74488;DHT22;63019;51.080;13.642;2023-02-04T01:23:12;3.10;99.90
74488;DHT22;63019;51.080;13.642;2023-02-04T01:24:14;3.10;99.90
74488;DHT22;63019;51.080;13.642;2023-02-04T01:25:16;3.10;99.90
74488;DHT22;63019;51.080;13.642;2023-02-04T01:26:18;3.10;99.90
74488;DHT22;63019;51.080;13.642;2023-02-04T01:27:20;3.10;99.90
74488;DHT22;63019;51.080;13.642;2023-02-04T01:28:22;3.10;99.90
74488;DHT22;63019;51.080;13.642;2023-02-04T01:29:23;3.10;99.90
74488;DHT22;63019;51.080;13.642;2023-02-04T01:30:25;3.10;99.90
74488;DHT22;63019;51.080;13.642;2023-02-04T01:31:27;3.10;99.90
74488;DHT22;63019;51.080;13.642;2023-02-04T01:32:31;3.10;99.90
74488;DHT22;63019;51.080;13.642;2023-02-04T01:33:33;3.10;99.90
74488;DHT22;63019;51.080;13.642;2023-02-04T01:34:35;3.10;99.90
74488;DHT22;63019;51.080;13.642;2023-02-04T01:35:37;3.10;99.90
74488;DHT22;63019;51.080;13.642;2023-02-04T01:36:39;3.10;99.90
74488;DHT22;63019;51.080;13.642;2023-02-04T01:37:40;3.10;99.90
74488;DHT22;63019;51.080;13.642;2023-02-04T01:38:42;3.10;99.90
74488;DHT22;63019;51.080;13.642;2023-02-04T01:39:44;3.10;99.90
74488;DHT22;63019;51.080;13.642;2023-02-04T01:40:46;3.00;99.90
74488;DHT22;63019;51.080;13.642;2023-02-04T01:41:48;3.00;99.90
74488;DHT22;63019;51.080;13.642;2023-02-04T01:42:51;3.00;99.90
74488;DHT22;63019;51.080;13.642;2023-02-04T01:43:53;2.90;99.90
74488;DHT22;63019;51.080;13.642;2023-02-04T01:44:55;2.90;99.90
74488;DHT22;63019;51.080;13.642;2023-02-04T01:45:57;2.80;99.90
74488;DHT22;63019;51.080;13.642;2023-02-04T01:47:00;2.80;99.90
74488;DHT22;63019;51.080;13.642;2023-02-04T01:48:03;2.80;99.90
74488;DHT22;63019;51.080;13.642;2023-02-04T01:49:05;2.80;99.90
74488;DHT22;63019;51.080;13.642;2023-02-04T01:50:10;2.80;99.90
74488;DHT22;63019;51.080;13.642;2023-02-04T01:51:15;2.80;99.90
74488;DHT22;63019;51.080;13.642;2023-02-04T01:52:17;2.80;99.90
74488;DHT22;63019;51.080;13.642;2023-02-04T01:53:24;2.80;99.90
74488;DHT22;63019;51.080;13.642;2023-02-04T01:54:26;2.80;99.90
74488;DHT22;63019;51.080;13.642;2023-02-04T01:55:31;2.80;99.90
74488;DHT22;63019;51.080;13.642;2023-02-04T01:56:33;2.80;99.90
74488;DHT22;63019;51.080;13.642;2023-02-04T01:57:35;2.80;99.90
74488;DHT22;63019;51.080;13.642;2023-02-04T01:58:37;2.80;99.90
74488;DHT22;63019;51.080;13.642;2023-02-04T01:59:39;2.80;99.90
74488;DHT22;63019;51.080;13.642;2023-02-04T02:00:43;2.80;99.90
74488;DHT22;63019;51.080;13.642;2023-02-04T02:01:47;2.80;99.90
74488;DHT22;63019;51.080;13.642;2023-02-04T02:02:50;2.70;99.90
74488;DHT22;63019;51.080;13.642;2023-02-04T02:03:52;2.70;99.90
74488;DHT22;63019;51.080;13.642;2023-02-04T02:04:54;2.70;99.90
74488;DHT22;63019;51.080;13.642;2023-02-04T02:05:56;2.70;99.90
74488;DHT22;63019;51.080;13.642;2023-02-04T02:07:01;2.70;99.90
74488;DHT22;63019;51.080;13.642;2023-02-04T02:08:05;2.70;99.90
74488;DHT22;63019;51.080;13.642;2023-02-04T02:09:08;2.70;99.90
74488;DHT22;63019;51.080;13.642;2023-02-04T02:10:11;2.70;99.90
74488;DHT22;63019;51.080;13.642;2023-02-04T02:11:13;2.80;99.90
74488;DHT22;63019;51.080;13.642;2023-02-04T02:12:15;2.80;99.90
74488;DHT22;63019;51.080;13.642;2023-02-04T02:13:18;2.80;99.90
74488;DHT22;63019;51.080;13.642;2023-02-04T02:14:20;2.80;99.90
74488;DHT22;63019;51.080;13.642;2023-02-04T02:15:23;2.80;99.90
74488;DHT22;63019;51.080;13.642;2023-02-04T02:16:25;2.80;99.90
74488;DHT22;63019;51.080;13.642;2023-02-04T02:17:27;2.90;99.90
74488;DHT22;63019;51.080;13.642;2023-02-04T02:18:29;2.90;99.90
74488;DHT22;63019;51.080;13.642;2023-02-04T02:19:35;2.90;99.90
74488;DHT22;63019;51.080;13.642;2023-02-04T02:20:38;2.90;99.90
74488;DHT22;63019;51.080;13.642;2023-02-04T02:21:50;2.90;99.90
74488;DHT22;63019;51.080;13.642;2023-02-04T02:23:01;2.90;99.90
74488;DHT22;63019;51.080;13.642;2023-02-04T02:24:27;2.90;99.90
74488;DHT22;63019;51.080;13.642;2023-02-04T02:25:29;2.80;99.90
74488;DHT22;63019;51.080;13.642;2023-02-04T02:26:31;2.90;99.90
74488;DHT22;63019;51.080;13.642;2023-02-04T02:27:33;2.90;99.90
74488;DHT22;63019;51.080;13.642;2023-02-04T02:28:35;2.80;99.90
74488;DHT22;63019;51.080;13.642;2023-02-04T02:29:39;2.80;99.90
74488;DHT22;63019;51.080;13.642;2023-02-04T02:30:42;2.80;99.90
74488;DHT22;63019;51.080;13.642;2023-02-04T02:31:48;2.80;99.90
74488;DHT22;63019;51.080;13.642;2023-02-04T02:32:51;2.80;99.90
74488;DHT22;63019;51.080;13.642;2023-02-04T02:33:53;2.80;99.90
74488;DHT22;63019;51.080;13.642;2023-02-04T02:34:55;2.70;99.90
74488;DHT22;63019;51.080;13.642;2023-02-04T02:35:56;2.70;99.90
74488;DHT22;63019;51.080;13.642;2023-02-04T02:36:59;2.70;99.90
74488;DHT22;63019;51.080;13.642;2023-02-04T02:38:02;2.60;99.90
74488;DHT22;63019;51.080;13.642;2023-02-04T02:39:04;2.60;99.90
74488;DHT22;63019;51.080;13.642;2023-02-04T02:40:06;2.50;99.90
74488;DHT22;63019;51.080;13.642;2023-02-04T02:41:08;2.50;99.90
74488;DHT22;63019;51.080;13.642;2023-02-04T02:42:14;2.50;99.90
74488;DHT22;63019;51.080;13.642;2023-02-04T02:43:22;2.50;99.90
74488;DHT22;63019;51.080;13.642;2023-02-04T02:44:25;2.40;99.90
74488;DHT22;63019;51.080;13.642;2023-02-04T02:45:29;2.40;99.90
74488;DHT22;63019;51.080;13.642;2023-02-04T02:46:31;2.30;99.90
74488;DHT22;63019;51.080;13.642;2023-02-04T02:47:33;2.30;99.90
74488;DHT22;63019;51.080;13.642;2023-02-04T02:48:35;2.30;99.90
74488;DHT22;63019;51.080;13.642;2023-02-04T02:49:37;2.30;99.90
74488;DHT22;63019;51.080;13.642;2023-02-04T02:50:42;2.30;99.90
74488;DHT22;63019;51.080;13.642;2023-02-04T02:51:44;2.30;99.90
74488;DHT22;63019;51.080;13.642;2023-02-04T02:52:46;2.30;99.90
74488;DHT22;63019;51.080;13.642;2023-02-04T02:53:49;2.30;99.90
74488;DHT22;63019;51.080;13.642;2023-02-04T02:54:50;2.30;99.90
74488;DHT22;63019;51.080;13.642;2023-02-04T02:55:54;2.30;99.90
74488;DHT22;63019;51.080;13.642;2023-02-04T02:56:57;2.20;99.90
74488;DHT22;63019;51.080;13.642;2023-02-04T02:58:00;2.30;99.90
74488;DHT22;63019;51.080;13.642;2023-02-04T02:59:14;2.30;99.90
74488;DHT22;63019;51.080;13.642;2023-02-04T03:01:24;2.20;99.90
74488;DHT22;63019;51.080;13.642;2023-02-04T03:02:26;2.20;99.90
74488;DHT22;63019;51.080;13.642;2023-02-04T03:03:34;2.20;99.90
74488;DHT22;63019;51.080;13.642;2023-02-04T03:04:40;2.20;99.90
74488;DHT22;63019;51.080;13.642;2023-02-04T03:05:44;2.20;99.90
74488;DHT22;63019;51.080;13.642;2023-02-04T03:06:47;2.20;99.90
74488;DHT22;63019;51.080;13.642;2023-02-04T03:07:50;2.20;99.90
74488;DHT22;63019;51.080;13.642;2023-02-04T03:08:52;2.20;99.90
74488;DHT22;63019;51.080;13.642;2023-02-04T03:09:58;2.20;99.90
74488;DHT22;63019;51.080;13.642;2023-02-04T03:11:00;2.20;99.90
74488;DHT22;63019;51.080;13.642;2023-02-04T03:12:03;2.20;99.90
74488;DHT22;63019;51.080;13.642;2023-02-04T03:13:06;2.20;99.90
74488;DHT22;63019;51.080;13.642;2023-02-04T03:14:08;2.30;99.90
74488;DHT22;63019;51.080;13.642;2023-02-04T03:15:10;2.20;99.90
74488;DHT22;63019;51.080;13.642;2023-02-04T03:16:12;2.30;99.90
74488;DHT22;63019;51.080;13.642;2023-02-04T03:17:14;2.20;99.90
74488;DHT22;63019;51.080;13.642;2023-02-04T03:18:18;2.20;99.90
74488;DHT22;63019;51.080;13.642;2023-02-04T03:19:24;2.20;99.90
74488;DHT22;63019;51.080;13.642;2023-02-04T03:20:28;2.20;99.90
74488;DHT22;63019;51.080;13.642;2023-02-04T03:21:31;2.20;99.90
74488;DHT22;63019;51.080;13.642;2023-02-04T03:22:33;2.20;99.90
74488;DHT22;63019;51.080;13.642;2023-02-04T03:23:35;2.20;99.90
74488;DHT22;63019;51.080;13.642;2023-02-04T03:24:37;2.20;99.90
74488;DHT22;63019;51.080;13.642;2023-02-04T03:25:39;2.20;99.90
74488;DHT22;63019;51.080;13.642;2023-02-04T03:26:41;2.20;99.90
74488;DHT22;63019;51.080;13.642;2023-02-04T03:27:43;2.20;99.90
74488;DHT22;63019;51.080;13.642;2023-02-04T03:28:45;2.10;99.90
74488;DHT22;63019;51.080;13.642;2023-02-04T03:29:47;2.10;99.90
74488;DHT22;63019;51.080;13.642;2023-02-04T03:30:48;2.10;99.90
74488;DHT22;63019;51.080;13.642;2023-02-04T03:31:57;2.10;99.90
74488;DHT22;63019;51.080;13.642;2023-02-04T03:33:00;2.00;99.90
74488;DHT22;63019;51.080;13.642;2023-02-04T03:34:03;2.00;99.90
74488;DHT22;63019;51.080;13.642;2023-02-04T03:35:05;2.00;99.90
74488;DHT22;63019;51.080;13.642;2023-02-04T03:36:08;2.00;99.90
74488;DHT22;63019;51.080;13.642;2023-02-04T03:37:10;2.00;99.90
74488;DHT22;63019;51.080;13.642;2023-02-04T03:38:11;1.90;99.90
74488;DHT22;63019;51.080;13.642;2023-02-04T03:39:13;1.90;99.90
74488;DHT22;63019;51.080;13.642;2023-02-04T03:40:15;1.90;99.90
74488;DHT22;63019;51.080;13.642;2023-02-04T03:41:17;1.90;99.90
74488;DHT22;63019;51.080;13.642;2023-02-04T03:42:19;1.90;99.90
74488;DHT22;63019;51.080;13.642;2023-02-04T03:43:21;1.90;99.90
74488;DHT22;63019;51.080;13.642;2023-02-04T03:44:23;1.90;99.90
74488;DHT22;63019;51.080;13.642;2023-02-04T03:45:27;1.90;99.90
74488;DHT22;63019;51.080;13.642;2023-02-04T03:46:44;1.90;99.90
74488;DHT22;63019;51.080;13.642;2023-02-04T03:47:46;1.90;99.90
74488;DHT22;63019;51.080;13.642;2023-02-04T03:48:48;1.90;99.90
74488;DHT22;63019;51.080;13.642;2023-02-04T03:49:49;1.80;99.90
74488;DHT22;63019;51.080;13.642;2023-02-04T03:50:51;1.80;99.90
74488;DHT22;63019;51.080;13.642;2023-02-04T03:51:53;1.80;99.90
74488;DHT22;63019;51.080;13.642;2023-02-04T03:52:55;1.80;99.90
74488;DHT22;63019;51.080;13.642;2023-02-04T03:53:56;1.80;99.90
74488;DHT22;63019;51.080;13.642;2023-02-04T03:54:58;1.80;99.90
74488;DHT22;63019;51.080;13.642;2023-02-04T03:56:00;1.80;99.90
74488;DHT22;63019;51.080;13.642;2023-02-04T03:57:02;1.80;99.90
74488;DHT22;63019;51.080;13.642;2023-02-04T03:58:04;1.80;99.90
74488;DHT22;63019;51.080;13.642;2023-02-04T03:59:06;1.80;99.90
74488;DHT22;63019;51.080;13.642;2023-02-04T04:00:09;1.70;99.90
74488;DHT22;63019;51.080;13.642;2023-02-04T04:01:11;1.70;99.90
74488;DHT22;63019;51.080;13.642;2023-02-04T04:02:12;1.70;99.90
74488;DHT22;63019;51.080;13.642;2023-02-04T04:03:14;1.70;99.90
74488;DHT22;63019;51.080;13.642;2023-02-04T04:04:16;1.70;99.90
74488;DHT22;63019;51.080;13.642;2023-02-04T04:05:18;1.60;99.90
74488;DHT22;63019;51.080;13.642;2023-02-04T04:06:20;1.60;99.90
74488;DHT22;63019;51.080;13.642;2023-02-04T04:07:22;1.60;99.90
74488;DHT22;63019;51.080;13.642;2023-02-04T04:08:23;1.60;99.90
74488;DHT22;63019;51.080;13.642;2023-02-04T04:09:26;1.60;99.90
74488;DHT22;63019;51.080;13.642;2023-02-04T04:10:27;1.50;99.90
74488;DHT22;63019;51.080;13.642;2023-02-04T04:11:33;1.50;99.90
74488;DHT22;63019;51.080;13.642;2023-02-04T04:12:34;1.50;99.90
74488;DHT22;63019;51.080;13.642;2023-02-04T04:13:36;1.50;99.90
74488;DHT22;63019;51.080;13.642;2023-02-04T04:14:38;1.50;99.90
74488;DHT22;63019;51.080;13.642;2023-02-04T04:15:40;1.50;99.90
74488;DHT22;63019;51.080;13.642;2023-02-04T04:16:42;1.50;99.90
74488;DHT22;63019;51.080;13.642;2023-02-04T04:17:43;1.50;99.90
74488;DHT22;63019;51.080;13.642;2023-02-04T04:18:45;1.50;99.90
74488;DHT22;63019;51.080;13.642;2023-02-04T04:19:47;1.50;99.90
74488;DHT22;63019;51.080;13.642;2023-02-04T04:20:50;1.50;99.90
74488;DHT22;63019;51.080;13.642;2023-02-04T04:21:51;1.50;99.90
74488;DHT22;63019;51.080;13.642;2023-02-04T04:22:53;1.50;99.90
74488;DHT22;63019;51.080;13.642;2023-02-04T04:23:55;1.50;99.90
74488;DHT22;63019;51.080;13.642;2023-02-04T04:24:57;1.50;99.90
74488;DHT22;63019;51.080;13.642;2023-02-04T04:25:59;1.50;99.90
74488;DHT22;63019;51.080;13.642;2023-02-04T04:27:00;1.50;99.90
74488;DHT22;63019;51.080;13.642;2023-02-04T04:28:02;1.50;99.90
74488;DHT22;63019;51.080;13.642;2023-02-04T04:29:04;1.50;99.90
74488;DHT22;63019;51.080;13.642;2023-02-04T04:30:06;1.50;99.90
74488;DHT22;63019;51.080;13.642;2023-02-04T04:31:08;1.50;99.90
74488;DHT22;63019;51.080;13.642;2023-02-04T04:32:10;1.50;99.90
74488;DHT22;63019;51.080;13.642;2023-02-04T04:33:12;1.50;99.90
74488;DHT22;63019;51.080;13.642;2023-02-04T04:34:14;1.50;99.90
74488;DHT22;63019;51.080;13.642;2023-02-04T04:35:16;1.50;99.90
74488;DHT22;63019;51.080;13.642;2023-02-04T04:36:17;1.50;99.90
74488;DHT22;63019;51.080;13.642;2023-02-04T04:37:19;1.60;99.90
74488;DHT22;63019;51.080;13.642;2023-02-04T04:38:21;1.60;99.90
74488;DHT22;63019;51.080;13.642;2023-02-04T04:39:23;1.60;99.90
74488;DHT22;63019;51.080;13.642;2023-02-04T04:40:25;1.60;99.90
74488;DHT22;63019;51.080;13.642;2023-02-04T04:41:27;1.60;99.90
74488;DHT22;63019;51.080;13.642;2023-02-04T04:42:28;1.60;99.90
74488;DHT22;63019;51.080;13.642;2023-02-04T04:43:30;1.60;99.90
74488;DHT22;63019;51.080;13.642;2023-02-04T04:44:32;1.60;99.90
74488;DHT22;63019;51.080;13.642;2023-02-04T04:45:34;1.60;99.90
74488;DHT22;63019;51.080;13.642;2023-02-04T04:46:35;1.60;99.90
74488;DHT22;63019;51.080;13.642;2023-02-04T04:47:37;1.60;99.90
74488;DHT22;63019;51.080;13.642;2023-02-04T04:48:39;1.60;99.90
74488;DHT22;63019;51.080;13.642;2023-02-04T04:49:41;1.50;99.90
74488;DHT22;63019;51.080;13.642;2023-02-04T04:50:43;1.50;99.90
74488;DHT22;63019;51.080;13.642;2023-02-04T04:51:44;1.60;99.90
74488;DHT22;63019;51.080;13.642;2023-02-04T04:52:46;1.60;99.90
74488;DHT22;63019;51.080;13.642;2023-02-04T04:53:48;1.50;99.90
74488;DHT22;63019;51.080;13.642;2023-02-04T04:54:50;1.60;99.90
74488;DHT22;63019;51.080;13.642;2023-02-04T04:55:52;1.50;99.90
74488;DHT22;63019;51.080;13.642;2023-02-04T04:56:53;1.60;99.90
74488;DHT22;63019;51.080;13.642;2023-02-04T04:57:55;1.50;99.90
74488;DHT22;63019;51.080;13.642;2023-02-04T04:58:57;1.50;99.90
74488;DHT22;63019;51.080;13.642;2023-02-04T04:59:59;1.50;99.90
74488;DHT22;63019;51.080;13.642;2023-02-04T05:01:00;1.50;99.90
74488;DHT22;63019;51.080;13.642;2023-02-04T05:02:02;1.50;99.90
74488;DHT22;63019;51.080;13.642;2023-02-04T05:03:04;1.50;99.90
74488;DHT22;63019;51.080;13.642;2023-02-04T05:04:06;1.50;99.90
74488;DHT22;63019;51.080;13.642;2023-02-04T05:05:08;1.50;99.90
74488;DHT22;63019;51.080;13.642;2023-02-04T05:06:10;1.50;99.90
74488;DHT22;63019;51.080;13.642;2023-02-04T05:07:13;1.50;99.90
74488;DHT22;63019;51.080;13.642;2023-02-04T05:08:15;1.50;99.90
74488;DHT22;63019;51.080;13.642;2023-02-04T05:09:17;1.50;99.90
74488;DHT22;63019;51.080;13.642;2023-02-04T05:10:19;1.50;99.90
74488;DHT22;63019;51.080;13.642;2023-02-04T05:11:21;1.40;99.90
74488;DHT22;63019;51.080;13.642;2023-02-04T05:12:23;1.40;99.90
74488;DHT22;63019;51.080;13.642;2023-02-04T05:13:24;1.40;99.90
74488;DHT22;63019;51.080;13.642;2023-02-04T05:14:26;1.40;99.90
74488;DHT22;63019;51.080;13.642;2023-02-04T05:15:28;1.40;99.90
74488;DHT22;63019;51.080;13.642;2023-02-04T05:16:30;1.40;99.90
74488;DHT22;63019;51.080;13.642;2023-02-04T05:17:32;1.40;99.90
74488;DHT22;63019;51.080;13.642;2023-02-04T05:18:33;1.40;99.90
74488;DHT22;63019;51.080;13.642;2023-02-04T05:19:35;1.40;99.90
74488;DHT22;63019;51.080;13.642;2023-02-04T05:20:37;1.40;99.90
74488;DHT22;63019;51.080;13.642;2023-02-04T05:21:39;1.40;99.90
74488;DHT22;63019;51.080;13.642;2023-02-04T05:22:41;1.30;99.90
74488;DHT22;63019;51.080;13.642;2023-02-04T05:23:42;1.40;99.90
74488;DHT22;63019;51.080;13.642;2023-02-04T05:24:44;1.30;99.90
74488;DHT22;63019;51.080;13.642;2023-02-04T05:25:46;1.30;99.90
74488;DHT22;63019;51.080;13.642;2023-02-04T05:26:48;1.30;99.90
74488;DHT22;63019;51.080;13.642;2023-02-04T05:27:50;1.30;99.90
74488;DHT22;63019;51.080;13.642;2023-02-04T05:28:51;1.30;99.90
74488;DHT22;63019;51.080;13.642;2023-02-04T05:29:53;1.20;99.90
74488;DHT22;63019;51.080;13.642;2023-02-04T05:30:55;1.20;99.90
74488;DHT22;63019;51.080;13.642;2023-02-04T05:31:57;1.20;99.90
74488;DHT22;63019;51.080;13.642;2023-02-04T05:32:59;1.20;99.90
74488;DHT22;63019;51.080;13.642;2023-02-04T05:34:00;1.10;99.90
74488;DHT22;63019;51.080;13.642;2023-02-04T05:35:03;1.10;99.90
74488;DHT22;63019;51.080;13.642;2023-02-04T05:36:06;1.10;99.90
74488;DHT22;63019;51.080;13.642;2023-02-04T05:37:08;1.10;99.90
74488;DHT22;63019;51.080;13.642;2023-02-04T05:38:09;1.10;99.90
74488;DHT22;63019;51.080;13.642;2023-02-04T05:39:11;1.00;99.90
74488;DHT22;63019;51.080;13.642;2023-02-04T05:40:13;1.00;99.90
74488;DHT22;63019;51.080;13.642;2023-02-04T05:41:15;1.00;99.90
74488;DHT22;63019;51.080;13.642;2023-02-04T05:42:17;1.00;99.90
74488;DHT22;63019;51.080;13.642;2023-02-04T05:43:18;1.00;99.90
74488;DHT22;63019;51.080;13.642;2023-02-04T05:44:20;1.00;99.90
74488;DHT22;63019;51.080;13.642;2023-02-04T05:45:22;1.00;99.90
74488;DHT22;63019;51.080;13.642;2023-02-04T05:46:24;0.90;99.90
74488;DHT22;63019;51.080;13.642;2023-02-04T05:47:26;1.00;99.90
74488;DHT22;63019;51.080;13.642;2023-02-04T05:48:27;0.90;99.90
74488;DHT22;63019;51.080;13.642;2023-02-04T05:49:29;0.90;99.90
74488;DHT22;63019;51.080;13.642;2023-02-04T05:50:31;0.90;99.90
74488;DHT22;63019;51.080;13.642;2023-02-04T05:51:33;0.90;99.90
74488;DHT22;63019;51.080;13.642;2023-02-04T05:52:35;0.90;99.90
74488;DHT22;63019;51.080;13.642;2023-02-04T05:53:37;0.90;99.90
74488;DHT22;63019;51.080;13.642;2023-02-04T05:54:38;0.90;99.90
74488;DHT22;63019;51.080;13.642;2023-02-04T05:55:40;0.90;99.90
74488;DHT22;63019;51.080;13.642;2023-02-04T05:56:42;0.90;99.90
74488;DHT22;63019;51.080;13.642;2023-02-04T05:57:44;0.90;99.90
74488;DHT22;63019;51.080;13.642;2023-02-04T05:58:45;0.90;99.90
74488;DHT22;63019;51.080;13.642;2023-02-04T05:59:47;0.90;99.90
74488;DHT22;63019;51.080;13.642;2023-02-04T06:00:49;0.80;99.90
74488;DHT22;63019;51.080;13.642;2023-02-04T06:01:51;0.80;99.90
74488;DHT22;63019;51.080;13.642;2023-02-04T06:02:53;0.80;99.90
74488;DHT22;63019;51.080;13.642;2023-02-04T06:03:54;0.80;99.90
74488;DHT22;63019;51.080;13.642;2023-02-04T06:04:56;0.80;99.90
74488;DHT22;63019;51.080;13.642;2023-02-04T06:05:58;0.80;99.90
74488;DHT22;63019;51.080;13.642;2023-02-04T06:07:00;0.80;99.90
74488;DHT22;63019;51.080;13.642;2023-02-04T06:08:02;0.80;99.90
74488;DHT22;63019;51.080;13.642;2023-02-04T06:09:04;0.80;99.90
74488;DHT22;63019;51.080;13.642;2023-02-04T06:10:05;0.80;99.90
74488;DHT22;63019;51.080;13.642;2023-02-04T06:11:07;0.80;99.90
74488;DHT22;63019;51.080;13.642;2023-02-04T06:12:09;0.80;99.90
74488;DHT22;63019;51.080;13.642;2023-02-04T06:13:11;0.80;99.90
74488;DHT22;63019;51.080;13.642;2023-02-04T06:14:13;0.80;99.90
74488;DHT22;63019;51.080;13.642;2023-02-04T06:15:15;0.80;99.90
74488;DHT22;63019;51.080;13.642;2023-02-04T06:16:17;0.80;99.90
74488;DHT22;63019;51.080;13.642;2023-02-04T06:17:18;0.70;99.90
74488;DHT22;63019;51.080;13.642;2023-02-04T06:18:20;0.70;99.90
74488;DHT22;63019;51.080;13.642;2023-02-04T06:19:22;0.70;99.90
74488;DHT22;63019;51.080;13.642;2023-02-04T06:20:24;0.70;99.90
74488;DHT22;63019;51.080;13.642;2023-02-04T06:21:26;0.70;99.90
74488;DHT22;63019;51.080;13.642;2023-02-04T06:22:27;0.70;99.90
74488;DHT22;63019;51.080;13.642;2023-02-04T06:23:30;0.60;99.90
74488;DHT22;63019;51.080;13.642;2023-02-04T06:24:34;0.70;99.90
74488;DHT22;63019;51.080;13.642;2023-02-04T06:25:36;0.70;99.90
74488;DHT22;63019;51.080;13.642;2023-02-04T06:26:38;0.60;99.90
74488;DHT22;63019;51.080;13.642;2023-02-04T06:27:40;0.60;99.90
74488;DHT22;63019;51.080;13.642;2023-02-04T06:28:41;0.60;99.90
74488;DHT22;63019;51.080;13.642;2023-02-04T06:29:43;0.60;99.90
74488;DHT22;63019;51.080;13.642;2023-02-04T06:30:45;0.60;99.90
74488;DHT22;63019;51.080;13.642;2023-02-04T06:31:47;0.60;99.90
74488;DHT22;63019;51.080;13.642;2023-02-04T06:32:50;0.50;99.90
74488;DHT22;63019;51.080;13.642;2023-02-04T06:33:51;0.50;99.90
74488;DHT22;63019;51.080;13.642;2023-02-04T06:34:53;0.50;99.90